createdAt,value
2019-05-10T00:00:40.270Z,83.3783
2019-05-10T00:01:43.307Z,82.9923
2019-05-10T00:02:46.346Z,83.2624
2019-05-10T00:03:49.287Z,82.8687
2019-05-10T00:04:52.337Z,82.9801
2019-05-10T00:05:55.295Z,83.0213
2019-05-10T00:06:58.318Z,83.3768
2019-05-10T00:08:01.281Z,83.3585
2019-05-10T00:09:04.290Z,83.4379
2019-05-10T00:10:07.299Z,83.5798
2019-05-10T00:11:10.318Z,84.1337
2019-05-10T00:12:13.292Z,83.5737
2019-05-10T00:13:16.317Z,83.7125
2019-05-10T00:14:19.298Z,84.2100
2019-05-10T00:15:21.297Z,84.5502
2019-05-10T00:16:24.332Z,84.4633
2019-05-10T00:17:27.273Z,84.5533
2019-05-10T00:18:30.367Z,84.6418
2019-05-10T00:19:33.298Z,84.9058
2019-05-10T00:20:36.300Z,84.8783
2019-05-10T00:21:39.286Z,84.7196
2019-05-10T00:22:42.305Z,84.5914
2019-05-10T00:23:45.304Z,84.4938
2019-05-10T00:25:02.256Z,85.0706
2019-05-10T00:25:56.297Z,85.0126
2019-05-10T00:26:59.305Z,85.4185
2019-05-10T00:28:02.314Z,85.8961
2019-05-10T00:29:05.289Z,86.7277
2019-05-10T00:30:08.296Z,86.5904
2019-05-10T00:31:11.265Z,86.8879
2019-05-10T00:32:14.301Z,88.2017
2019-05-10T00:33:17.291Z,86.7781
2019-05-10T00:34:20.304Z,86.6880
2019-05-10T00:35:23.315Z,86.8986
2019-05-10T00:36:26.293Z,86.5827
2019-05-10T00:37:29.318Z,86.5095
2019-05-10T00:38:32.302Z,85.5650
2019-05-10T00:39:35.325Z,84.8753
2019-05-10T00:40:38.304Z,84.1276
2019-05-10T00:41:40.272Z,84.6830
2019-05-10T00:42:43.252Z,84.8463
2019-05-10T00:43:46.300Z,85.0263
2019-05-10T00:44:49.298Z,85.4704
2019-05-10T00:45:52.293Z,85.4734
2019-05-10T00:46:55.298Z,85.0355
2019-05-10T00:47:58.287Z,84.3397
2019-05-10T00:49:01.300Z,84.4755
2019-05-10T00:50:04.304Z,84.7684
2019-05-10T00:51:07.331Z,84.9439
2019-05-10T00:52:10.288Z,85.1774
2019-05-10T00:53:13.298Z,85.0950
2019-05-10T00:54:16.307Z,85.7404
2019-05-10T00:55:19.621Z,86.6697
2019-05-10T00:56:21.329Z,87.5288
2019-05-10T00:57:24.294Z,88.9662
2019-05-10T00:58:27.312Z,89.8451
2019-05-10T00:59:30.290Z,90.8904
2019-05-10T01:00:33.269Z,90.9483
2019-05-10T01:01:36.287Z,91.1543
2019-05-10T01:02:39.280Z,91.9524
2019-05-10T01:03:42.265Z,92.6070
2019-05-10T01:04:44.342Z,93.2296
2019-05-10T01:05:47.291Z,92.6513
2019-05-10T01:06:51.443Z,93.1563
2019-05-10T01:07:54.301Z,93.2647
2019-05-10T01:08:57.250Z,94.0124
2019-05-10T01:10:00.325Z,93.5317
2019-05-10T01:11:03.295Z,94.1909
2019-05-10T01:12:06.307Z,94.4549
2019-05-10T01:13:09.282Z,94.7982
2019-05-10T01:14:12.295Z,95.1141
2019-05-10T01:15:15.354Z,95.2529
2019-05-10T01:16:18.307Z,95.3399
2019-05-10T01:17:21.310Z,95.5123
2019-05-10T01:18:24.263Z,95.7092
2019-05-10T01:19:27.292Z,95.7565
2019-05-10T01:20:30.301Z,95.4665
2019-05-10T01:21:32.297Z,95.6954
2019-05-10T01:22:35.281Z,95.8343
2019-05-10T01:23:37.263Z,95.3429
2019-05-10T01:24:40.308Z,95.9030
2019-05-10T01:25:44.376Z,96.0815
2019-05-10T01:26:47.325Z,96.3104
2019-05-10T01:27:50.257Z,95.7473
2019-05-10T01:28:53.294Z,95.2743
2019-05-10T01:29:56.292Z,95.0332
2019-05-10T01:30:59.359Z,95.0195
2019-05-10T01:32:02.290Z,95.0225
2019-05-10T01:33:05.287Z,95.3307
2019-05-10T01:34:08.306Z,95.2285
2019-05-10T01:35:11.304Z,95.3521
2019-05-10T01:36:14.337Z,95.8328
2019-05-10T01:37:17.291Z,95.7778
2019-05-10T01:38:20.301Z,95.8373
2019-05-10T01:39:23.279Z,95.2621
2019-05-10T01:40:26.292Z,95.3292
2019-05-10T01:41:29.303Z,95.3658
2019-05-10T01:42:32.280Z,95.4360
2019-05-10T01:43:35.309Z,95.7687
2019-05-10T01:44:38.290Z,95.5871
2019-05-10T01:45:40.295Z,95.6176
2019-05-10T01:46:43.329Z,95.8831
2019-05-10T01:47:46.297Z,96.0220
2019-05-10T01:48:49.269Z,95.8648
2019-05-10T01:49:52.392Z,95.8617
2019-05-10T01:50:55.285Z,96.0586
2019-05-10T01:51:58.299Z,95.7794
2019-05-10T01:53:01.282Z,96.0388
2019-05-10T01:54:04.259Z,96.1273
2019-05-10T01:55:07.298Z,95.5871
2019-05-10T01:56:10.300Z,95.5261
2019-05-10T01:57:13.355Z,95.7275
2019-05-10T01:58:16.318Z,96.0525
2019-05-10T01:59:19.289Z,96.3470
2019-05-10T02:00:22.284Z,96.7041
2019-05-10T02:01:25.283Z,96.7590
2019-05-10T02:02:28.338Z,97.0016
2019-05-10T02:03:31.259Z,97.1466
2019-05-10T02:04:34.302Z,96.9924
2019-05-10T02:05:37.277Z,97.1374
2019-05-10T02:06:40.309Z,97.2335
2019-05-10T02:07:43.382Z,97.4350
2019-05-10T02:08:46.319Z,97.3846
2019-05-10T02:09:49.320Z,97.4136
2019-05-10T02:10:52.303Z,97.4594
2019-05-10T02:11:55.311Z,97.5967
2019-05-10T02:12:58.329Z,97.5875
2019-05-10T02:14:01.316Z,97.6593
2019-05-10T02:15:04.268Z,97.6974
2019-05-10T02:16:07.289Z,97.7325
2019-05-10T02:17:10.279Z,97.8164
2019-05-10T02:18:13.349Z,97.9492
2019-05-10T02:19:16.288Z,98.0026
2019-05-10T02:20:19.343Z,98.0163
2019-05-10T02:21:22.318Z,97.9751
2019-05-10T02:22:25.290Z,97.9538
2019-05-10T02:23:28.352Z,97.8882
2019-05-10T02:24:31.286Z,97.8378
2019-05-10T02:25:34.322Z,97.9080
2019-05-10T02:26:36.305Z,97.8241
2019-05-10T02:27:39.306Z,97.8073
2019-05-10T02:28:42.320Z,97.7798
2019-05-10T02:29:45.342Z,97.7645
2019-05-10T02:30:48.292Z,97.7325
2019-05-10T02:31:51.286Z,97.8164
2019-05-10T02:32:54.342Z,97.5326
2019-05-10T02:33:57.322Z,97.6837
2019-05-10T02:35:00.373Z,97.7798
2019-05-10T02:36:03.322Z,97.9889
2019-05-10T02:37:06.326Z,98.1170
2019-05-10T02:38:08.288Z,98.1323
2019-05-10T02:39:11.393Z,97.9858
2019-05-10T02:40:14.303Z,97.8714
2019-05-10T02:41:17.306Z,97.9385
2019-05-10T02:42:20.332Z,97.8469
2019-05-10T02:43:23.290Z,97.8195
2019-05-10T02:44:26.357Z,97.9950
2019-05-10T02:45:29.331Z,97.9034
2019-05-10T02:46:32.318Z,97.8531
2019-05-10T02:47:35.297Z,97.9629
2019-05-10T02:48:38.346Z,98.0438
2019-05-10T02:49:41.296Z,97.9629
2019-05-10T02:50:44.282Z,97.8714
2019-05-10T02:51:47.317Z,97.7798
2019-05-10T02:52:50.287Z,97.7890
2019-05-10T02:53:53.321Z,97.8027
2019-05-10T02:54:56.314Z,97.7432
2019-05-10T02:55:59.319Z,97.8714
2019-05-10T02:57:02.318Z,97.9675
2019-05-10T02:58:05.314Z,97.8882
2019-05-10T02:59:08.321Z,97.8057
2019-05-10T03:00:11.316Z,97.9934
2019-05-10T03:01:14.318Z,98.0438
2019-05-10T03:02:17.343Z,98.4009
2019-05-10T03:03:20.301Z,98.3871
2019-05-10T03:04:23.337Z,98.3871
2019-05-10T03:05:26.341Z,98.4253
2019-05-10T03:06:29.282Z,98.4558
2019-05-10T03:07:32.353Z,98.4558
2019-05-10T03:08:35.289Z,98.4573
2019-05-10T03:09:38.333Z,98.5519
2019-05-10T03:10:41.306Z,98.5534
2019-05-10T03:11:44.277Z,98.4894
2019-05-10T03:12:47.322Z,98.5702
2019-05-10T03:13:50.394Z,98.7030
2019-05-10T03:14:52.283Z,98.7732
2019-05-10T03:15:55.315Z,98.8785
2019-05-10T03:16:58.327Z,98.9197
2019-05-10T03:18:01.296Z,98.9197
2019-05-10T03:19:04.318Z,98.8968
2019-05-10T03:20:07.287Z,98.9059
2019-05-10T03:21:10.337Z,98.9456
2019-05-10T03:22:13.343Z,98.9456
2019-05-10T03:23:16.277Z,98.9792
2019-05-10T03:24:19.316Z,99.0600
2019-05-10T03:25:22.295Z,99.0433
2019-05-10T03:26:25.318Z,99.0341
2019-05-10T03:27:28.284Z,99.0112
2019-05-10T03:28:31.287Z,98.8556
2019-05-10T03:29:34.284Z,98.8739
2019-05-10T03:30:37.320Z,98.8449
2019-05-10T03:31:40.321Z,98.8129
2019-05-10T03:32:43.326Z,98.7869
2019-05-10T03:33:55.009Z,98.7732
2019-05-10T03:34:54.300Z,98.7686
2019-05-10T03:35:57.369Z,98.6358
2019-05-10T03:37:00.282Z,98.4649
2019-05-10T03:38:03.292Z,98.4512
2019-05-10T03:39:06.312Z,98.3795
2019-05-10T03:40:09.325Z,98.3047
2019-05-10T03:41:12.320Z,98.3459
2019-05-10T03:42:15.265Z,98.5534
2019-05-10T03:43:18.305Z,98.5840
2019-05-10T03:44:21.277Z,98.7366
2019-05-10T03:45:24.376Z,98.6313
2019-05-10T03:46:27.307Z,98.6908
2019-05-10T03:47:30.302Z,98.7503
2019-05-10T03:48:33.268Z,98.6450
2019-05-10T03:49:36.314Z,98.3047
2019-05-10T03:50:39.319Z,98.2834
2019-05-10T03:51:42.333Z,98.2132
2019-05-10T03:52:44.308Z,98.0850
2019-05-10T03:53:47.290Z,98.2361
2019-05-10T03:54:50.310Z,98.2040
2019-05-10T03:55:53.416Z,98.1994
2019-05-10T03:57:11.871Z,98.2742
2019-05-10T03:58:04.303Z,98.2544
2019-05-10T03:59:07.315Z,98.3017
2019-05-10T04:00:10.294Z,98.2681
2019-05-10T04:01:13.300Z,98.2147
2019-05-10T04:02:16.339Z,98.2818
2019-05-10T04:03:19.284Z,98.1720
2019-05-10T04:04:24.325Z,97.9995
2019-05-10T04:05:27.303Z,97.9706
2019-05-10T04:06:30.330Z,98.0072
2019-05-10T04:07:33.294Z,97.9156
2019-05-10T04:08:36.318Z,97.6791
2019-05-10T04:09:39.269Z,97.4350
2019-05-10T04:10:42.320Z,97.5357
2019-05-10T04:11:45.328Z,97.6959
2019-05-10T04:12:48.303Z,97.6425
2019-05-10T04:13:51.312Z,97.5814
2019-05-10T04:14:54.281Z,97.5051
2019-05-10T04:15:57.294Z,97.6822
2019-05-10T04:17:01.326Z,97.6059
2019-05-10T04:18:03.351Z,97.8057
2019-05-10T04:19:06.287Z,97.8897
2019-05-10T04:20:08.312Z,97.7752
2019-05-10T04:21:10.501Z,98.1231
2019-05-10T04:22:13.294Z,98.3612
2019-05-10T04:23:16.374Z,98.4115
2019-05-10T04:24:19.297Z,98.3413
2019-05-10T04:25:22.317Z,98.3139
2019-05-10T04:26:25.339Z,98.2132
2019-05-10T04:27:32.099Z,98.4115
2019-05-10T04:28:36.327Z,98.6068
2019-05-10T04:29:39.317Z,98.6542
2019-05-10T04:30:42.275Z,98.5031
2019-05-10T04:31:44.289Z,98.4695
2019-05-10T04:32:46.456Z,98.5336
2019-05-10T04:33:49.290Z,98.6175
2019-05-10T04:34:52.318Z,98.7991
2019-05-10T04:35:55.288Z,98.8174
2019-05-10T04:36:58.290Z,98.5443
2019-05-10T04:38:00.290Z,98.5443
2019-05-10T04:39:03.333Z,98.5122
2019-05-10T04:40:06.300Z,98.1598
2019-05-10T04:41:09.301Z,98.3276
2019-05-10T04:42:12.313Z,98.2376
2019-05-10T04:43:14.295Z,98.2132
2019-05-10T04:44:17.313Z,98.2742
2019-05-10T04:45:20.276Z,98.0407
2019-05-10T04:46:23.319Z,98.1170
2019-05-10T04:47:26.303Z,97.0275
2019-05-10T04:48:29.321Z,96.9284
2019-05-10T04:49:32.341Z,97.2488
2019-05-10T04:50:35.331Z,97.4075
2019-05-10T04:51:38.358Z,97.6104
2019-05-10T04:52:40.322Z,97.7569
2019-05-10T04:53:43.338Z,97.5921
2019-05-10T04:54:45.309Z,97.6455
2019-05-10T04:55:48.328Z,97.6272
2019-05-10T04:56:50.334Z,97.7645
2019-05-10T04:57:53.313Z,97.8973
2019-05-10T04:58:55.317Z,97.8531
2019-05-10T04:59:58.295Z,97.9767
2019-05-10T05:01:01.349Z,97.9339
2019-05-10T05:02:04.303Z,98.0209
2019-05-10T05:03:07.320Z,97.8973
2019-05-10T05:04:10.295Z,97.3632
2019-05-10T05:05:13.392Z,97.5372
2019-05-10T05:06:16.296Z,97.5357
2019-05-10T05:07:19.288Z,97.8882
2019-05-10T05:08:22.339Z,97.9110
2019-05-10T05:09:25.280Z,97.6593
2019-05-10T05:10:28.361Z,97.7157
2019-05-10T05:11:31.289Z,97.9294
2019-05-10T05:12:34.319Z,98.0392
2019-05-10T05:13:37.292Z,98.0453
2019-05-10T05:14:40.340Z,97.9294
2019-05-10T05:15:43.321Z,97.4029
2019-05-10T05:16:46.337Z,97.3541
2019-05-10T05:17:49.292Z,97.6684
2019-05-10T05:18:52.291Z,97.8744
2019-05-10T05:19:55.334Z,97.9263
2019-05-10T05:20:58.328Z,97.9217
2019-05-10T05:22:01.325Z,98.0453
2019-05-10T05:23:04.291Z,98.3520
2019-05-10T05:24:07.325Z,98.3383
2019-05-10T05:25:10.282Z,98.2467
2019-05-10T05:26:13.364Z,98.3017
2019-05-10T05:27:16.394Z,97.5586
2019-05-10T05:28:23.178Z,97.8027
2019-05-10T05:29:27.319Z,98.0224
2019-05-10T05:30:30.311Z,98.3795
2019-05-10T05:31:33.344Z,98.2086
2019-05-10T05:32:38.510Z,98.3749
2019-05-10T05:33:44.332Z,98.3108
2019-05-10T05:34:47.294Z,98.6297
2019-05-10T05:35:50.294Z,98.5534
2019-05-10T05:36:53.333Z,98.5885
2019-05-10T05:37:56.280Z,98.7533
2019-05-10T05:38:59.304Z,98.8586
2019-05-10T05:40:02.333Z,98.8312
2019-05-10T05:41:05.310Z,98.8876
2019-05-10T05:42:08.352Z,98.8968
2019-05-10T05:43:11.314Z,98.7442
2019-05-10T05:44:14.322Z,98.6999
2019-05-10T05:45:17.335Z,98.6999
2019-05-10T05:46:20.276Z,98.7854
2019-05-10T05:47:23.402Z,98.6679
2019-05-10T05:48:39.590Z,98.6587
2019-05-10T05:49:34.302Z,98.7213
2019-05-10T05:50:37.284Z,98.7457
2019-05-10T05:51:40.297Z,98.8449
2019-05-10T05:52:43.368Z,98.8830
2019-05-10T05:53:46.319Z,98.9319
2019-05-10T05:54:52.950Z,98.7625
2019-05-10T05:55:57.274Z,98.7442
2019-05-10T05:57:00.347Z,98.8357
2019-05-10T05:58:04.849Z,98.9044
2019-05-10T05:59:09.076Z,98.8876
2019-05-10T06:00:12.311Z,98.9136
2019-05-10T06:01:24.830Z,98.9105
2019-05-10T06:02:23.306Z,98.6267
2019-05-10T06:03:29.206Z,98.4070
2019-05-10T06:04:33.296Z,98.0545
2019-05-10T06:05:37.264Z,98.0163
2019-05-10T06:06:40.362Z,97.9706
2019-05-10T06:07:43.329Z,97.8515
2019-05-10T06:08:46.385Z,97.8012
2019-05-10T06:09:49.326Z,97.4228
2019-05-10T06:10:57.685Z,97.2442
2019-05-10T06:12:00.306Z,97.2763
2019-05-10T06:13:03.352Z,97.2839
2019-05-10T06:14:10.497Z,97.2351
2019-05-10T06:15:14.295Z,96.6659
2019-05-10T06:16:17.306Z,96.5835
2019-05-10T06:17:23.793Z,96.4553
2019-05-10T06:18:28.353Z,96.6155
2019-05-10T06:19:31.294Z,96.4569
2019-05-10T06:20:38.243Z,96.7819
2019-05-10T06:21:42.330Z,96.8627
2019-05-10T06:23:04.990Z,97.1099
2019-05-10T06:23:53.328Z,97.0642
2019-05-10T06:24:56.301Z,96.6430
2019-05-10T06:25:59.347Z,96.6430
2019-05-10T06:27:03.396Z,95.8328
2019-05-10T06:28:25.352Z,95.9747
2019-05-10T06:29:19.672Z,94.7295
2019-05-10T06:30:23.612Z,95.2010
2019-05-10T06:31:27.279Z,95.6558
2019-05-10T06:32:30.299Z,96.2097
2019-05-10T06:33:32.316Z,96.2692
2019-05-10T06:34:38.830Z,96.8536
2019-05-10T06:35:43.330Z,96.8124
2019-05-10T06:36:46.349Z,96.9497
2019-05-10T06:37:49.317Z,96.9360
2019-05-10T06:38:52.366Z,96.8231
2019-05-10T06:39:55.281Z,96.7498
2019-05-10T06:40:58.303Z,96.9818
2019-05-10T06:42:01.326Z,97.2122
2019-05-10T06:43:06.927Z,97.3312
2019-05-10T06:44:12.354Z,97.3312
2019-05-10T06:45:16.340Z,97.3892
2019-05-10T06:46:23.645Z,97.5540
2019-05-10T06:47:27.330Z,97.5036
2019-05-10T06:48:33.642Z,97.3953
2019-05-10T06:49:41.014Z,96.9970
2019-05-10T06:50:45.347Z,97.0733
2019-05-10T06:51:49.197Z,96.8505
2019-05-10T06:52:54.303Z,96.7758
2019-05-10T06:53:57.304Z,96.4324
2019-05-10T06:55:00.296Z,96.2264
2019-05-10T06:56:03.389Z,95.9701
2019-05-10T06:57:11.069Z,96.1501
2019-05-10T06:58:14.370Z,96.3516
2019-05-10T06:59:19.471Z,96.4935
2019-05-10T07:00:25.374Z,96.4431
2019-05-10T07:01:28.298Z,95.9518
2019-05-10T07:02:32.483Z,96.2951
2019-05-10T07:03:36.303Z,96.3867
2019-05-10T07:04:41.069Z,96.0616
2019-05-10T07:05:44.300Z,95.7870
2019-05-10T07:06:47.284Z,95.6512
2019-05-10T07:07:50.293Z,96.0266
2019-05-10T07:08:58.086Z,96.3470
2019-05-10T07:10:12.356Z,96.1761
2019-05-10T07:11:09.383Z,95.9426
2019-05-10T07:12:15.195Z,95.7382
2019-05-10T07:13:20.305Z,95.8755
2019-05-10T07:14:25.366Z,95.8694
2019-05-10T07:15:30.307Z,96.3104
2019-05-10T07:16:33.299Z,96.4065
2019-05-10T07:17:43.655Z,96.6033
2019-05-10T07:18:45.334Z,96.4599
2019-05-10T07:19:53.876Z,96.1624
2019-05-10T07:21:00.984Z,96.5759
2019-05-10T07:22:04.342Z,96.3043
2019-05-10T07:23:07.930Z,95.8251
2019-05-10T07:24:11.310Z,96.0800
2019-05-10T07:25:14.305Z,96.2631
2019-05-10T07:26:23.504Z,96.6812
2019-05-10T07:27:25.330Z,96.9543
2019-05-10T07:28:28.320Z,97.3022
2019-05-10T07:29:41.890Z,97.2381
2019-05-10T07:30:41.400Z,97.0550
2019-05-10T07:31:45.350Z,97.1984
2019-05-10T07:32:48.329Z,97.0840
2019-05-10T07:33:51.316Z,96.5927
2019-05-10T07:34:58.942Z,95.7000
2019-05-10T07:36:02.374Z,96.1990
2019-05-10T07:37:05.295Z,96.1044
2019-05-10T07:38:08.324Z,95.6283
2019-05-10T07:39:11.300Z,95.8740
2019-05-10T07:40:14.307Z,96.1776
2019-05-10T07:41:19.738Z,96.4920
2019-05-10T07:42:25.298Z,96.4385
2019-05-10T07:43:28.993Z,96.3317
2019-05-10T07:44:32.293Z,96.1273
2019-05-10T07:45:35.326Z,96.3653
2019-05-10T07:46:39.931Z,96.4279
2019-05-10T07:47:46.345Z,96.2402
2019-05-10T07:48:53.457Z,95.3384
2019-05-10T07:49:57.328Z,95.2483
2019-05-10T07:51:00.327Z,95.4040
2019-05-10T07:52:04.455Z,95.3170
2019-05-10T07:53:08.294Z,96.2768
2019-05-10T07:54:11.349Z,96.3745
2019-05-10T07:55:18.602Z,96.2829
2019-05-10T07:56:22.353Z,96.1486
2019-05-10T07:57:27.070Z,96.1456
2019-05-10T07:58:30.304Z,96.1257
2019-05-10T07:59:49.525Z,95.5947
2019-05-10T08:00:44.503Z,94.0993
2019-05-10T08:01:49.499Z,94.1894
2019-05-10T08:03:00.796Z,93.7774
2019-05-10T08:04:00.307Z,93.7194
2019-05-10T08:05:04.921Z,93.3623
2019-05-10T08:06:11.364Z,92.7382
2019-05-10T08:07:14.313Z,92.5154
2019-05-10T08:08:19.185Z,93.3623
2019-05-10T08:09:21.283Z,92.6787
2019-05-10T08:10:24.330Z,92.8496
2019-05-10T08:11:28.549Z,92.7199
2019-05-10T08:12:35.176Z,93.3654
2019-05-10T08:13:40.328Z,94.1482
2019-05-10T08:14:44.369Z,92.9946
2019-05-10T08:15:51.348Z,92.7398
2019-05-10T08:16:58.608Z,92.1385
2019-05-10T08:18:02.361Z,92.4651
2019-05-10T08:19:05.330Z,92.9305
2019-05-10T08:20:09.043Z,91.1223
2019-05-10T08:21:23.945Z,92.2393
2019-05-10T08:22:24.340Z,91.8471
2019-05-10T08:23:28.131Z,92.0424
2019-05-10T08:24:32.729Z,92.4102
2019-05-10T08:25:44.308Z,92.3964
2019-05-10T08:26:46.323Z,92.1630
2019-05-10T08:27:55.046Z,91.8517
2019-05-10T08:28:57.298Z,92.1569
2019-05-10T08:31:08.357Z,92.1263
2019-05-10T08:32:12.738Z,92.4331
2019-05-10T08:33:16.400Z,91.2566
2019-05-10T08:34:19.360Z,91.7601
2019-05-10T08:35:22.315Z,91.5297
2019-05-10T08:36:25.318Z,91.8227
2019-05-10T08:37:35.908Z,91.4122
2019-05-10T08:38:39.568Z,91.1864
2019-05-10T08:39:49.070Z,91.3787
2019-05-10T08:40:52.934Z,90.9087
2019-05-10T08:42:04.973Z,90.7195
2019-05-10T08:43:08.440Z,91.9234
2019-05-10T08:44:19.446Z,91.1269
2019-05-10T08:45:22.680Z,91.2734
2019-05-10T08:46:34.919Z,90.2754
2019-05-10T08:47:34.291Z,90.8492
2019-05-10T08:48:38.146Z,89.7536
2019-05-10T08:49:57.081Z,89.6544
2019-05-10T08:50:57.021Z,89.0959
2019-05-10T08:52:02.470Z,88.8609
2019-05-10T08:53:11.123Z,88.1880
2019-05-10T08:54:14.303Z,89.3202
2019-05-10T08:55:17.323Z,89.2103
2019-05-10T08:56:23.458Z,89.1234
2019-05-10T08:57:27.306Z,89.7322
2019-05-10T08:58:36.759Z,89.5811
2019-05-10T08:59:38.356Z,88.5817
2019-05-10T09:00:54.169Z,89.9321
2019-05-10T09:01:50.992Z,89.3111
2019-05-10T09:03:02.332Z,89.3370
2019-05-10T09:04:06.878Z,88.7297
2019-05-10T09:05:13.301Z,88.8838
2019-05-10T09:06:17.109Z,89.2561
2019-05-10T09:07:20.333Z,89.6452
2019-05-10T09:08:27.283Z,89.3004
2019-05-10T09:09:33.778Z,88.7785
2019-05-10T09:10:39.290Z,89.1722
2019-05-10T09:11:44.379Z,89.1768
2019-05-10T09:12:54.203Z,88.1010
2019-05-10T09:13:57.814Z,86.9657
2019-05-10T09:15:08.352Z,86.6697
2019-05-10T09:16:09.305Z,86.5827
2019-05-10T09:17:14.888Z,86.9795
2019-05-10T09:18:22.740Z,86.1280
2019-05-10T09:19:36.025Z,86.3767
2019-05-10T09:20:34.290Z,86.2898
2019-05-10T09:21:40.902Z,87.3365
2019-05-10T09:22:45.297Z,86.8559
2019-05-10T09:23:52.844Z,86.3218
2019-05-10T09:24:56.315Z,86.6880
2019-05-10T09:26:03.728Z,86.3676
2019-05-10T09:27:07.283Z,86.9291
2019-05-10T09:28:14.945Z,85.2491
2019-05-10T09:29:18.305Z,85.0309
2019-05-10T09:30:22.007Z,85.6535
2019-05-10T09:31:25.834Z,86.5827
2019-05-10T09:32:30.642Z,87.1580
2019-05-10T09:33:40.992Z,87.7638
2019-05-10T09:34:44.319Z,87.8309
2019-05-10T09:35:52.315Z,87.4784
2019-05-10T09:36:55.326Z,86.9169
2019-05-10T09:37:58.718Z,86.1616
2019-05-10T09:39:03.442Z,85.0721
2019-05-10T09:40:09.992Z,85.2583
2019-05-10T09:41:14.321Z,85.4688
2019-05-10T09:42:25.692Z,85.9495
2019-05-10T09:43:25.314Z,85.3407
2019-05-10T09:44:27.422Z,85.7023
2019-05-10T09:45:32.477Z,84.5533
2019-05-10T09:46:36.335Z,83.6606
2019-05-10T09:47:39.339Z,83.6927
2019-05-10T09:48:44.640Z,83.6332
2019-05-10T09:49:54.123Z,83.7949
2019-05-10T09:51:00.199Z,82.9023
2019-05-10T09:52:12.377Z,84.1794
2019-05-10T09:53:15.299Z,84.1016
2019-05-10T09:54:23.222Z,84.6693
2019-05-10T09:55:27.958Z,84.7517
2019-05-10T09:56:33.039Z,86.4759
2019-05-10T09:57:39.317Z,87.6066
2019-05-10T09:58:42.303Z,88.4642
2019-05-10T09:59:46.998Z,89.7902
2019-05-10T10:00:50.334Z,89.2973
2019-05-10T10:01:53.330Z,90.0252
2019-05-10T10:03:00.941Z,88.6793
2019-05-10T10:04:04.306Z,89.9916
2019-05-10T10:05:07.575Z,90.2632
2019-05-10T10:06:11.249Z,89.9474
2019-05-10T10:07:14.322Z,90.7240
2019-05-10T10:08:17.659Z,90.7332
2019-05-10T10:09:24.658Z,90.8125
2019-05-10T10:10:31.957Z,90.6706
2019-05-10T10:11:35.306Z,88.7053
2019-05-10T10:12:38.316Z,88.2475
2019-05-10T10:13:44.008Z,87.5853
2019-05-10T10:14:49.308Z,87.3549
2019-05-10T10:15:52.656Z,85.7542
2019-05-10T10:17:02.143Z,84.8158
2019-05-10T10:18:04.282Z,85.7847
2019-05-10T10:19:07.336Z,85.5833
2019-05-10T10:20:10.343Z,84.5640
2019-05-10T10:21:13.450Z,85.4368
2019-05-10T10:22:21.341Z,84.8524
2019-05-10T10:23:24.803Z,84.8096
2019-05-10T10:24:31.357Z,83.9582
2019-05-10T10:25:35.088Z,86.3523
2019-05-10T10:26:42.285Z,83.4455
2019-05-10T10:27:45.322Z,84.7562
2019-05-10T10:28:49.565Z,86.1784
2019-05-10T10:29:57.358Z,85.4887
2019-05-10T10:31:05.252Z,84.5029
2019-05-10T10:32:08.355Z,84.2985
2019-05-10T10:33:16.032Z,84.4404
2019-05-10T10:34:19.315Z,84.2710
2019-05-10T10:35:26.837Z,84.1825
2019-05-10T10:36:30.262Z,84.1917
2019-05-10T10:37:33.309Z,84.3442
2019-05-10T10:38:44.755Z,83.2364
2019-05-10T10:39:44.346Z,83.5798
2019-05-10T10:40:49.348Z,82.3972
2019-05-10T10:41:52.337Z,81.0880
2019-05-10T10:42:57.683Z,80.6119
2019-05-10T10:44:01.330Z,80.6912
2019-05-10T10:45:04.292Z,81.7945
2019-05-10T10:46:11.864Z,80.1266
2019-05-10T10:47:15.304Z,80.2594
2019-05-10T10:48:18.335Z,79.7467
2019-05-10T10:49:25.499Z,79.4675
2019-05-10T10:50:29.329Z,79.6826
2019-05-10T10:51:34.460Z,78.7350
2019-05-10T10:52:38.323Z,77.6379
2019-05-10T10:53:41.330Z,77.6654
2019-05-10T10:54:44.295Z,78.6801
2019-05-10T10:55:53.974Z,78.2193
2019-05-10T10:56:59.262Z,76.9863
2019-05-10T10:58:03.309Z,78.0499
2019-05-10T10:59:07.538Z,77.5219
2019-05-10T11:00:11.309Z,77.3159
2019-05-10T11:01:21.486Z,78.7625
2019-05-10T11:02:32.385Z,76.9558
2019-05-10T11:03:30.945Z,78.0941
2019-05-10T11:04:40.638Z,77.0092
2019-05-10T11:05:43.350Z,77.6822
2019-05-10T11:06:46.341Z,77.0092
2019-05-10T11:07:51.185Z,76.7437
2019-05-10T11:08:53.330Z,76.4248
2019-05-10T11:10:13.270Z,77.4273
2019-05-10T11:11:04.366Z,77.5723
2019-05-10T11:12:07.307Z,75.9472
2019-05-10T11:13:18.080Z,76.1685
2019-05-10T11:14:20.507Z,76.4828
2019-05-10T11:15:28.181Z,76.2829
2019-05-10T11:16:32.354Z,76.7407
2019-05-10T11:17:35.315Z,76.1898
2019-05-10T11:18:38.311Z,75.7092
2019-05-10T11:19:41.821Z,75.1202
2019-05-10T11:20:49.383Z,74.4137
2019-05-10T11:21:53.334Z,72.1431
2019-05-10T11:22:56.307Z,72.4910
2019-05-10T11:23:58.339Z,71.9310
2019-05-10T11:25:09.196Z,72.8756
2019-05-10T11:26:10.838Z,73.7774
2019-05-10T11:27:17.181Z,73.4646
2019-05-10T11:28:20.689Z,73.0495
2019-05-10T11:29:27.724Z,70.9514
2019-05-10T11:30:32.515Z,72.6558
2019-05-10T11:31:36.327Z,73.5164
2019-05-10T11:32:41.591Z,74.1985
2019-05-10T11:33:47.487Z,72.2255
2019-05-10T11:34:53.297Z,71.4961
2019-05-10T11:35:57.707Z,71.1772
2019-05-10T11:37:04.287Z,70.6813
2019-05-10T11:38:12.954Z,72.0913
2019-05-10T11:39:25.750Z,71.2047
2019-05-10T11:40:29.790Z,72.3034
2019-05-10T11:41:31.593Z,72.2667
2019-05-10T11:42:37.436Z,73.8949
2019-05-10T11:43:43.328Z,76.1349
2019-05-10T11:44:50.203Z,77.1115
2019-05-10T11:45:54.302Z,76.8368
2019-05-10T11:46:57.335Z,76.7865
2019-05-10T11:48:02.156Z,74.5968
2019-05-10T11:49:05.322Z,75.7504
2019-05-10T11:50:10.475Z,74.7600
2019-05-10T11:52:22.299Z,74.0505
2019-05-10T11:53:25.317Z,74.8486
2019-05-10T11:54:28.332Z,74.4457
2019-05-10T11:55:35.229Z,75.3536
2019-05-10T11:56:41.046Z,75.4864
2019-05-10T11:57:44.555Z,74.7936
2019-05-10T11:59:03.714Z,74.6410
2019-05-10T12:00:00.295Z,73.8079
2019-05-10T12:01:14.804Z,73.4371
2019-05-10T12:02:33.735Z,73.2128
2019-05-10T12:03:23.319Z,73.5378
2019-05-10T12:04:36.376Z,74.2580
2019-05-10T12:05:35.313Z,74.7051
2019-05-10T12:06:41.235Z,73.5027
2019-05-10T12:07:46.421Z,73.8399
2019-05-10T12:08:57.053Z,72.3262
2019-05-10T12:10:08.285Z,72.3156
2019-05-10T12:12:13.335Z,69.3599
2019-05-10T12:13:23.650Z,68.9830
2019-05-10T12:14:25.343Z,69.0944
2019-05-10T12:15:31.446Z,70.1289
2019-05-10T12:16:35.346Z,70.4356
2019-05-10T12:17:46.410Z,71.6304
2019-05-10T12:19:01.233Z,71.3085
2019-05-10T12:21:09.631Z,68.7816
2019-05-10T12:22:15.976Z,66.5660
2019-05-10T12:23:29.682Z,70.3532
2019-05-10T12:24:46.216Z,69.5155
2019-05-10T12:25:51.508Z,69.8024
2019-05-10T12:26:16.032Z,68.9143
2019-05-10T12:26:17.889Z,74.8669
2019-05-10T12:26:27.366Z,69.1768
2019-05-10T12:27:52.397Z,71.9539
2019-05-10T12:29:02.183Z,69.5293
2019-05-10T12:30:04.344Z,71.5206
2019-05-10T12:31:07.522Z,71.1131
2019-05-10T12:32:15.328Z,72.8511
2019-05-10T12:33:25.130Z,71.6976
2019-05-10T12:34:26.397Z,71.3787
2019-05-10T12:35:35.739Z,71.0704
2019-05-10T12:36:37.283Z,70.4479
2019-05-10T12:37:46.280Z,70.3151
2019-05-10T12:38:48.314Z,70.2831
2019-05-10T12:39:53.142Z,70.3929
2019-05-10T12:40:56.310Z,69.7993
2019-05-10T12:41:59.316Z,70.7607
2019-05-10T12:43:02.324Z,70.3563
2019-05-10T12:44:07.440Z,70.6447
2019-05-10T12:45:10.291Z,69.0761
2019-05-10T12:46:13.304Z,69.2210
2019-05-10T12:47:16.307Z,67.7760
2019-05-10T12:48:23.214Z,69.3263
2019-05-10T12:49:26.339Z,64.9271
2019-05-10T12:50:29.320Z,64.8234
2019-05-10T12:51:31.359Z,66.4393
2019-05-10T12:52:34.382Z,65.9037
2019-05-10T12:53:44.435Z,65.0202
2019-05-10T12:54:45.341Z,64.9424
2019-05-10T12:55:48.326Z,62.4231
2019-05-10T12:56:51.332Z,63.9307
2019-05-10T12:57:54.294Z,59.4125